Time;durP1;ratioP1;P1;durP2;ratioP2;P2;SDS_P1;SDS_P2;PMS_P1;PMS_P2;Temp;Humidity;BMP_temperature;BMP_pressure;BME280_temperature;BME280_humidity;BME280_pressure;Samples;Min_cycle;Max_cycle;Signal;HPM_P1;HPM_P2
2023/06/13 00:00:33;;;;;;;;;8.00;7.00;;;;;20.72;74.84;99752.22;5056376;28;45304;-75
2023/06/13 00:03:00;;;;;;;;;7.67;6.33;;;;;20.71;74.89;99760.22;5039774;28;45374;-75
2023/06/13 00:05:26;;;;;;;;;6.00;6.00;;;;;20.63;76.18;99760.41;5057887;28;45351;-75
2023/06/13 00:07:51;;;;;;;;;8.00;8.00;;;;;20.49;75.99;99744.78;5044306;28;45385;-75
2023/06/13 00:10:17;;;;;;;;;7.00;6.00;;;;;20.50;75.84;99735.91;5040198;28;45705;-75
2023/06/13 00:12:44;;;;;;;;;7.00;6.00;;;;;20.55;75.65;99735.81;5041320;28;45263;-76
2023/06/13 00:15:11;;;;;;;;;6.00;6.00;;;;;20.63;75.80;99740.06;5048453;28;45608;-75
2023/06/13 00:17:38;;;;;;;;;7.00;7.00;;;;;20.63;75.82;99742.72;5038961;28;46129;-75
2023/06/13 00:20:08;;;;;;;;;7.00;7.00;;;;;20.56;75.95;99740.22;5048985;28;45482;-75
2023/06/13 00:22:34;;;;;;;;;4.67;4.00;;;;;20.56;75.32;99735.78;5039127;28;45543;-75
2023/06/13 00:25:00;;;;;;;;;6.33;6.33;;;;;20.53;75.31;99724.34;5055895;28;45231;-75
2023/06/13 00:27:26;;;;;;;;;8.00;6.33;;;;;20.50;75.42;99713.84;5058941;28;47634;-75
2023/06/13 00:29:52;;;;;;;;;6.33;6.33;;;;;20.52;75.35;99723.50;5038311;28;45486;-75
2023/06/13 00:32:17;;;;;;;;;6.67;6.33;;;;;20.52;75.04;99714.66;5058843;28;45551;-75
2023/06/13 00:34:44;;;;;;;;;8.00;7.00;;;;;20.61;74.42;99727.72;5040132;28;45542;-75
2023/06/13 00:37:12;;;;;;;;;5.67;5.67;;;;;20.58;74.22;99706.56;5058548;28;45456;-75
2023/06/13 00:39:39;;;;;;;;;6.00;5.33;;;;;20.57;74.12;99713.66;5040316;28;45391;-75
2023/06/13 00:42:06;;;;;;;;;4.33;4.00;;;;;20.54;73.60;99695.13;5059034;28;45235;-75
2023/06/13 00:44:32;;;;;;;;;5.67;5.67;;;;;20.45;73.08;99682.97;5057898;28;45969;-75
2023/06/13 00:47:00;;;;;;;;;6.00;5.00;;;;;20.44;73.28;99686.53;5058230;28;45553;-75
2023/06/13 00:49:27;;;;;;;;;7.00;7.00;;;;;20.33;73.35;99683.25;5040455;28;45587;-75
2023/06/13 00:51:58;;;;;;;;;5.00;5.00;;;;;20.24;73.89;99683.50;5050530;28;45412;-75
2023/06/13 00:54:24;;;;;;;;;6.00;5.00;;;;;20.12;74.45;99666.09;5058594;28;45489;-75
2023/06/13 00:56:50;;;;;;;;;6.33;6.33;;;;;19.95;75.23;99655.84;5040413;28;45459;-75
2023/06/13 00:59:17;;;;;;;;;7.00;6.33;;;;;19.96;75.40;99668.22;5044911;28;45431;-75
2023/06/13 01:01:43;;;;;;;;;7.67;7.00;;;;;19.82;75.98;99665.88;5020759;28;45487;-75
2023/06/13 01:04:13;;;;;;;;;4.33;4.00;;;;;19.73;76.28;99647.50;5038244;28;45522;-75
2023/06/13 01:06:44;;;;;;;;;7.00;7.00;;;;;19.82;75.70;99651.75;5049653;28;45619;-76
2023/06/13 01:09:11;;;;;;;;;7.00;7.00;;;;;19.79;76.03;99643.84;5039441;28;45570;-75
2023/06/13 01:11:42;;;;;;;;;7.00;6.00;;;;;19.88;75.59;99656.91;5056545;28;45285;-76
2023/06/13 01:14:16;;;;;;;;;6.00;6.00;;;;;19.82;75.31;99644.66;5042595;28;45301;-75
2023/06/13 01:16:54;;;;;;;;;5.67;5.67;;;;;19.91;74.53;99650.66;5038886;28;47131;-75
2023/06/13 01:19:40;;;;;;;;;4.67;4.67;;;;;19.89;74.40;99648.03;5036118;28;45560;-76
2023/06/13 01:22:37;;;;;;;;;5.00;4.33;;;;;19.81;74.52;99637.59;5038166;28;45457;-76
2023/06/13 01:25:21;;;;;;;;;5.00;5.00;;;;;19.67;75.30;99626.41;5037815;28;45475;-75
2023/06/13 01:27:53;;;;;;;;;6.00;5.33;;;;;19.62;75.13;99620.38;5037588;28;46251;-76
2023/06/13 01:30:20;;;;;;;;;7.33;6.00;;;;;19.61;75.12;99623.91;5037877;28;45246;-75
2023/06/13 01:32:46;;;;;;;;;6.67;6.67;;;;;19.61;76.18;99637.16;5039789;28;46196;-76
2023/06/13 01:35:12;;;;;;;;;6.67;6.00;;;;;19.51;75.69;99644.41;5050423;28;45622;-77
2023/06/13 01:37:38;;;;;;;;;7.67;7.00;;;;;19.33;75.95;99618.31;5055962;28;45449;-76
2023/06/13 01:40:04;;;;;;;;;5.00;5.00;;;;;19.20;76.61;99625.63;5038719;28;45664;-77
2023/06/13 01:42:30;;;;;;;;;5.67;4.67;;;;;19.17;76.66;99626.56;5057620;28;45413;-76
2023/06/13 01:44:56;;;;;;;;;5.00;4.67;;;;;19.07;77.29;99615.28;5039393;28;45399;-76
2023/06/13 01:47:40;;;;;;;;;6.00;6.00;;;;;19.17;76.70;99629.22;5040026;28;45535;-76
2023/06/13 01:50:30;;;;;;;;;6.00;5.00;;;;;19.23;77.29;99629.09;5047059;28;45327;-75
2023/06/13 01:53:15;;;;;;;;;6.33;5.00;;;;;19.20;76.79;99620.34;5037461;28;45500;-75
2023/06/13 01:55:56;;;;;;;;;5.00;4.00;;;;;19.12;77.39;99622.25;5043094;28;45437;-76
2023/06/13 01:58:31;;;;;;;;;7.00;6.33;;;;;19.17;77.20;99633.66;5044830;28;45371;-76
2023/06/13 02:01:00;;;;;;;;;4.00;3.67;;;;;19.00;77.66;99602.19;5052347;28;45438;-75
2023/06/13 02:03:27;;;;;;;;;7.00;6.00;;;;;19.09;77.42;99631.16;5018854;28;45518;-76
2023/06/13 02:05:52;;;;;;;;;6.00;5.67;;;;;19.16;77.08;99630.13;5041233;28;45485;-76
2023/06/13 02:08:18;;;;;;;;;5.00;4.67;;;;;19.14;76.87;99629.28;5056176;28;45664;-76
2023/06/13 02:10:44;;;;;;;;;4.00;4.00;;;;;19.07;76.54;99622.38;5038952;28;45328;-75
2023/06/13 02:13:11;;;;;;;;;5.00;5.00;;;;;19.08;76.23;99626.78;5035660;28;45494;-76
2023/06/13 02:15:37;;;;;;;;;4.00;4.00;;;;;19.06;77.17;99624.16;5052671;28;45596;-76
2023/06/13 02:18:03;;;;;;;;;6.33;5.67;;;;;19.00;76.53;99602.19;5023459;28;47855;-75
2023/06/13 02:20:28;;;;;;;;;6.33;5.67;;;;;18.99;76.19;99596.03;5047699;28;45521;-76
2023/06/13 02:22:56;;;;;;;;;6.67;6.00;;;;;19.10;76.33;99614.38;5018724;28;45571;-75
2023/06/13 02:25:22;;;;;;;;;5.67;5.00;;;;;19.16;75.71;99616.91;5052180;28;45501;-76
2023/06/13 02:27:47;;;;;;;;;5.33;4.67;;;;;19.12;75.32;99615.22;5040418;28;45504;-75
2023/06/13 02:30:13;;;;;;;;;3.67;3.67;;;;;18.99;75.80;99621.66;5037913;28;45479;-75
2023/06/13 02:32:39;;;;;;;;;5.67;5.33;;;;;18.92;76.25;99631.50;5043157;28;45497;-75
2023/06/13 02:35:07;;;;;;;;;5.67;5.67;;;;;18.84;76.41;99633.38;5048356;28;45478;-75
2023/06/13 02:37:33;;;;;;;;;5.00;5.00;;;;;18.80;76.23;99631.69;5054832;28;46347;-76
2023/06/13 02:39:58;;;;;;;;;4.00;3.00;;;;;18.87;76.80;99641.28;5055960;28;45493;-75
2023/06/13 02:42:27;;;;;;;;;5.33;5.00;;;;;18.81;76.85;99621.09;5044349;28;45324;-76
2023/06/13 02:44:52;;;;;;;;;6.00;6.00;;;;;18.91;76.69;99636.81;5038757;28;45437;-76
2023/06/13 02:47:21;;;;;;;;;6.33;6.00;;;;;18.83;77.02;99632.50;5039061;28;46074;-76
2023/06/13 02:49:46;;;;;;;;;5.00;5.00;;;;;18.85;76.44;99620.13;5048785;28;45383;-77
2023/06/13 02:52:12;;;;;;;;;5.67;5.00;;;;;18.85;76.47;99611.31;5042718;28;45441;-76
2023/06/13 02:54:37;;;;;;;;;6.33;6.00;;;;;18.93;76.40;99627.06;5050435;28;45469;-75
2023/06/13 02:57:03;;;;;;;;;5.67;4.33;;;;;18.87;76.68;99605.09;5039293;28;46191;-76
2023/06/13 02:59:29;;;;;;;;;6.00;6.00;;;;;18.98;76.92;99611.94;5040296;28;45316;-76
2023/06/13 03:01:54;;;;;;;;;5.00;5.00;;;;;18.93;76.42;99611.19;5036372;28;45439;-77
2023/06/13 03:04:20;;;;;;;;;5.00;5.00;;;;;18.97;76.27;99615.50;5038073;28;45667;-77
2023/06/13 03:06:46;;;;;;;;;4.67;4.67;;;;;19.01;75.90;99607.47;5047470;28;46194;-75
2023/06/13 03:09:12;;;;;;;;;6.67;5.00;;;;;18.94;76.07;99607.63;5048275;28;45548;-75
2023/06/13 03:11:37;;;;;;;;;5.33;5.00;;;;;18.86;76.15;99599.81;5055405;28;45448;-75
2023/06/13 03:14:02;;;;;;;;;5.33;5.00;;;;;18.95;76.17;99615.53;5046945;28;45355;-75
2023/06/13 03:16:28;;;;;;;;;5.00;4.33;;;;;18.93;76.37;99603.25;5055230;28;45359;-75
2023/06/13 03:18:54;;;;;;;;;4.00;4.00;;;;;18.97;76.29;99612.88;5056320;28;45456;-75
2023/06/13 03:21:22;;;;;;;;;5.00;4.00;;;;;18.95;75.73;99604.94;5041465;28;45490;-75
2023/06/13 03:23:47;;;;;;;;;5.00;5.00;;;;;18.97;75.63;99618.16;5042492;28;45985;-75
2023/06/13 03:26:13;;;;;;;;;5.00;5.00;;;;;18.98;76.32;99625.19;5051830;28;46082;-75
2023/06/13 03:28:38;;;;;;;;;6.33;6.00;;;;;18.86;76.47;99623.63;5049824;28;45705;-75
2023/06/13 03:31:04;;;;;;;;;5.33;5.00;;;;;18.73;76.98;99617.69;5059066;28;45378;-75
2023/06/13 03:33:30;;;;;;;;;4.67;4.67;;;;;18.84;76.82;99638.66;5058365;28;45460;-75
2023/06/13 03:35:55;;;;;;;;;7.00;6.00;;;;;18.78;77.24;99642.28;5058937;28;45538;-75
2023/06/13 03:38:21;;;;;;;;;6.00;6.00;;;;;18.70;77.35;99625.66;5058757;28;45222;-75
2023/06/13 03:40:47;;;;;;;;;5.00;4.00;;;;;18.65;76.59;99611.66;5059458;28;46024;-75
2023/06/13 03:43:12;;;;;;;;;5.33;4.67;;;;;18.69;77.42;99613.34;5058753;28;45459;-75
2023/06/13 03:45:38;;;;;;;;;6.00;6.00;;;;;18.62;77.14;99612.59;5054307;28;45338;-75
2023/06/13 03:48:04;;;;;;;;;6.33;6.00;;;;;18.72;77.75;99621.25;5047954;28;45304;-75
2023/06/13 03:50:29;;;;;;;;;4.00;4.00;;;;;18.74;77.50;99623.84;5045878;28;45473;-76
2023/06/13 03:52:55;;;;;;;;;5.00;5.00;;;;;18.68;77.44;99611.59;5038923;28;45496;-77
2023/06/13 03:55:23;;;;;;;;;4.00;4.00;;;;;18.68;77.18;99607.19;5043292;28;46125;-77
2023/06/13 03:57:49;;;;;;;;;5.33;5.33;;;;;18.69;77.13;99610.69;5058636;28;45478;-77
2023/06/13 04:00:15;;;;;;;;;6.00;6.00;;;;;18.55;77.58;99604.78;5040650;28;45423;-76
2023/06/13 04:02:41;;;;;;;;;5.33;5.33;;;;;18.65;77.53;99622.25;5057913;28;45570;-77
2023/06/13 04:05:08;;;;;;;;;4.33;4.00;;;;;18.68;77.41;99620.41;5043064;28;45501;-75
2023/06/13 04:07:35;;;;;;;;;6.33;5.33;;;;;18.73;77.03;99625.63;5058381;28;45456;-75
2023/06/13 04:10:02;;;;;;;;;5.67;5.67;;;;;18.71;76.55;99618.63;5051458;28;45380;-75
2023/06/13 04:12:29;;;;;;;;;4.67;4.67;;;;;18.71;76.82;99623.91;5049482;28;45283;-75
2023/06/13 04:14:55;;;;;;;;;4.67;4.67;;;;;18.79;76.62;99637.88;5043724;28;45572;-75
2023/06/13 04:17:20;;;;;;;;;5.67;5.67;;;;;18.77;76.68;99631.72;5057302;28;45426;-75
2023/06/13 04:19:48;;;;;;;;;5.00;5.00;;;;;18.82;76.14;99644.00;5044197;28;45350;-75
2023/06/13 04:22:16;;;;;;;;;5.00;4.67;;;;;18.76;75.93;99630.88;5049230;28;45414;-75
2023/06/13 04:24:42;;;;;;;;;4.67;4.67;;;;;18.52;76.08;99616.28;5043926;28;45556;-75
2023/06/13 04:27:08;;;;;;;;;7.00;5.33;;;;;18.60;76.89;99642.59;5053325;28;45311;-74
2023/06/13 04:29:34;;;;;;;;;5.33;5.00;;;;;18.60;76.68;99654.06;5043193;28;45718;-75
2023/06/13 04:32:02;;;;;;;;;3.67;3.67;;;;;18.59;77.38;99660.25;5048058;28;45411;-75
2023/06/13 04:34:27;;;;;;;;;4.33;4.33;;;;;18.57;77.36;99661.19;5038125;28;45525;-75
2023/06/13 04:36:55;;;;;;;;;5.33;5.33;;;;;18.59;77.59;99657.59;5051341;28;45426;-76
2023/06/13 04:39:24;;;;;;;;;5.33;4.67;;;;;18.72;77.16;99662.66;5051901;28;45394;-74
2023/06/13 04:41:55;;;;;;;;;5.00;5.00;;;;;18.76;76.76;99670.56;5038861;28;45824;-75
2023/06/13 04:44:25;;;;;;;;;7.00;5.67;;;;;18.79;76.73;99667.88;5042780;28;45900;-75
2023/06/13 04:46:52;;;;;;;;;4.33;4.33;;;;;18.84;76.28;99657.19;5056877;28;45406;-76
2023/06/13 04:49:18;;;;;;;;;4.67;4.67;;;;;18.91;76.28;99672.06;5039670;28;45463;-75
2023/06/13 04:51:44;;;;;;;;;5.00;5.00;;;;;18.93;76.31;99661.47;5038408;28;45437;-76
2023/06/13 04:54:10;;;;;;;;;4.00;3.33;;;;;19.07;75.38;99668.22;5050923;28;45457;-76
2023/06/13 04:56:37;;;;;;;;;6.33;5.00;;;;;19.06;75.00;99663.00;5036196;28;45519;-77
2023/06/13 04:59:03;;;;;;;;;4.33;4.33;;;;;19.14;75.81;99682.25;5051377;28;45367;-78
2023/06/13 05:01:32;;;;;;;;;5.00;5.00;;;;;19.24;75.59;99680.28;5028058;28;46037;-75
2023/06/13 05:03:58;;;;;;;;;6.00;6.00;;;;;19.15;75.83;99691.06;5044678;28;45500;-75
2023/06/13 05:06:24;;;;;;;;;5.00;5.00;;;;;19.12;75.93;99683.16;5046249;28;45469;-77
2023/06/13 05:08:52;;;;;;;;;5.00;5.00;;;;;19.20;75.70;99694.47;5038015;28;45485;-77
2023/06/13 05:11:18;;;;;;;;;6.00;6.00;;;;;19.24;75.66;99689.09;5053285;28;45596;-77
2023/06/13 05:13:43;;;;;;;;;6.33;6.00;;;;;19.18;75.73;99678.63;5050069;28;46202;-77
2023/06/13 05:16:09;;;;;;;;;7.67;7.00;;;;;19.34;75.79;99702.16;5037545;28;45504;-75
2023/06/13 05:18:35;;;;;;;;;5.67;5.00;;;;;19.33;75.81;99684.53;5036537;28;45705;-77
2023/06/13 05:21:01;;;;;;;;;6.00;5.33;;;;;19.39;75.96;99710.88;5040338;28;45655;-77
2023/06/13 05:23:28;;;;;;;;;6.33;5.33;;;;;19.31;76.70;99696.94;5050092;28;45998;-77
2023/06/13 05:25:53;;;;;;;;;6.33;6.00;;;;;19.44;76.22;99696.66;5037599;28;45421;-77
2023/06/13 05:28:19;;;;;;;;;2.33;2.00;;;;;19.40;75.74;99687.03;5052501;28;45498;-76
2023/06/13 05:30:45;;;;;;;;;5.00;4.00;;;;;19.59;75.20;99707.84;5038989;28;45746;-76
2023/06/13 05:33:13;;;;;;;;;7.33;6.00;;;;;19.50;74.91;99682.41;5048448;28;45504;-75
2023/06/13 05:35:39;;;;;;;;;5.33;5.00;;;;;19.66;74.57;99699.75;5037663;28;45486;-75
2023/06/13 05:38:09;;;;;;;;;6.00;6.00;;;;;19.57;74.65;99684.03;5037996;28;45224;-75
2023/06/13 05:40:37;;;;;;;;;4.00;4.00;;;;;19.46;74.26;99655.13;5039943;28;45553;-75
2023/06/13 05:43:04;;;;;;;;;5.00;5.00;;;;;19.74;74.02;99693.44;5049306;28;45349;-75
2023/06/13 05:45:29;;;;;;;;;4.33;4.00;;;;;19.73;74.36;99678.44;5035728;28;45237;-75
2023/06/13 05:47:55;;;;;;;;;5.67;5.33;;;;;19.73;74.47;99673.13;5052971;28;45539;-75
2023/06/13 05:50:21;;;;;;;;;5.67;5.00;;;;;19.78;74.64;99681.88;5039572;28;45521;-75
2023/06/13 05:52:46;;;;;;;;;5.67;5.00;;;;;19.83;74.34;99683.50;5048188;28;46387;-75
2023/06/13 05:55:12;;;;;;;;;5.00;5.00;;;;;19.87;74.61;99676.34;5035496;28;45376;-75
2023/06/13 05:57:39;;;;;;;;;5.00;5.00;;;;;19.96;74.50;99701.81;5030881;28;45478;-75
2023/06/13 06:00:08;;;;;;;;;7.67;5.67;;;;;20.02;74.21;99704.31;5053573;28;45525;-75
2023/06/13 06:02:35;;;;;;;;;5.67;5.00;;;;;20.02;74.16;99675.16;5036335;28;45346;-76
2023/06/13 06:05:01;;;;;;;;;5.00;5.00;;;;;20.09;74.02;99695.31;5049010;28;45491;-77
2023/06/13 06:07:26;;;;;;;;;6.67;6.00;;;;;20.12;74.16;99697.91;5040674;28;45407;-75
2023/06/13 06:09:52;;;;;;;;;6.67;5.00;;;;;20.18;74.23;99696.91;5056396;28;45323;-76
2023/06/13 06:12:17;;;;;;;;;6.33;4.33;;;;;20.14;74.44;99684.63;5038562;28;45503;-78
2023/06/13 06:14:43;;;;;;;;;6.00;6.00;;;;;20.20;74.42;99684.47;5044846;28;45473;-77
2023/06/13 06:17:08;;;;;;;;;7.00;6.00;;;;;20.27;74.44;99670.13;5047799;28;45830;-78
2023/06/13 06:19:34;;;;;;;;;5.00;5.00;;;;;20.45;73.56;99680.31;5048842;28;45427;-77
2023/06/13 06:22:00;;;;;;;;;5.33;5.00;;;;;20.32;74.10;99670.03;5043635;28;45894;-78
2023/06/13 06:24:25;;;;;;;;;4.00;4.00;;;;;20.18;74.67;99657.13;5045151;28;45414;-77
2023/06/13 06:26:51;;;;;;;;;6.00;6.00;;;;;20.23;75.08;99682.63;5051876;28;45631;-77
2023/06/13 06:29:16;;;;;;;;;6.00;6.00;;;;;20.31;74.96;99674.47;5035920;28;45811;-76
2023/06/13 06:31:42;;;;;;;;;6.67;6.67;;;;;20.43;74.00;99671.53;5037270;28;46091;-75
2023/06/13 06:34:07;;;;;;;;;5.00;5.00;;;;;20.61;73.84;99686.16;5036363;28;45439;-79
2023/06/13 06:36:33;;;;;;;;;5.67;4.67;;;;;20.67;73.78;99674.50;5051045;28;45463;-75
2023/06/13 06:38:58;;;;;;;;;7.00;6.00;;;;;20.78;73.32;99687.50;5055449;28;45486;-76
2023/06/13 06:41:24;;;;;;;;;5.33;5.33;;;;;20.79;73.36;99687.47;5055727;28;45968;-77
2023/06/13 06:43:49;;;;;;;;;6.00;5.00;;;;;20.87;73.36;99679.31;5056276;28;45526;-75
2023/06/13 06:46:15;;;;;;;;;7.67;7.00;;;;;21.01;72.68;99690.44;5055947;28;45407;-75
2023/06/13 06:48:40;;;;;;;;;5.00;5.00;;;;;21.08;72.32;99688.47;5037779;28;45557;-76
2023/06/13 06:51:06;;;;;;;;;7.00;6.00;;;;;21.10;72.73;99683.13;5054824;28;46184;-76
2023/06/13 06:53:32;;;;;;;;;5.67;5.33;;;;;21.23;71.99;99689.88;5048774;28;45563;-76
2023/06/13 06:55:57;;;;;;;;;7.67;6.33;;;;;21.28;72.20;99687.06;5043759;28;45864;-76
2023/06/13 06:58:24;;;;;;;;;7.00;7.00;;;;;21.40;72.37;99686.72;5032585;28;45854;-75
2023/06/13 07:00:49;;;;;;;;;7.33;6.00;;;;;21.64;72.38;99680.72;5052792;28;46236;-76
2023/06/13 07:03:15;;;;;;;;;6.00;6.00;;;;;21.92;70.58;99676.38;5048043;28;45422;-77
2023/06/13 07:05:40;;;;;;;;;6.00;6.00;;;;;22.12;69.72;99675.75;5050198;28;45724;-76
2023/06/13 07:08:06;;;;;;;;;8.00;6.67;;;;;22.30;69.17;99685.84;5047444;28;45530;-75
2023/06/13 07:10:32;;;;;;;;;6.00;6.00;;;;;22.47;68.34;99687.97;5053292;28;46076;-76
2023/06/13 07:12:57;;;;;;;;;7.67;7.67;;;;;22.50;68.01;99693.22;5048341;28;45492;-75
2023/06/13 07:15:23;;;;;;;;;6.00;6.00;;;;;22.67;68.09;99694.44;5055324;28;45426;-75
2023/06/13 07:17:48;;;;;;;;;5.00;5.00;;;;;22.91;66.77;99690.06;5053915;28;45652;-76
2023/06/13 07:20:14;;;;;;;;;6.00;5.33;;;;;23.07;67.15;99698.44;5044331;28;46210;-75
2023/06/13 07:22:40;;;;;;;;;8.00;6.33;;;;;23.19;65.70;99682.88;5049696;28;45369;-76
2023/06/13 07:25:06;;;;;;;;;6.00;6.00;;;;;23.28;65.73;99687.00;5052513;28;45516;-75
2023/06/13 07:27:32;;;;;;;;;5.00;5.00;;;;;23.47;66.00;99692.53;5049470;28;45444;-76
2023/06/13 07:29:58;;;;;;;;;5.00;4.67;;;;;23.75;65.51;99681.69;5055534;28;46419;-75
2023/06/13 07:32:23;;;;;;;;;5.00;5.00;;;;;24.49;62.34;99696.63;5056909;28;45318;-75
2023/06/13 07:34:49;;;;;;;;;7.33;6.00;;;;;25.46;61.83;99698.75;5050928;28;45395;-75
2023/06/13 07:37:15;;;;;;;;;7.00;6.00;;;;;26.10;58.61;99686.03;5049651;28;45560;-75
2023/06/13 07:39:40;;;;;;;;;5.00;5.00;;;;;26.61;58.81;99695.19;5047448;28;45535;-76
2023/06/13 07:42:07;;;;;;;;;6.00;5.00;;;;;26.92;57.09;99685.59;5038205;28;45537;-76
2023/06/13 07:44:32;;;;;;;;;6.00;5.33;;;;;27.18;56.41;99694.97;5042626;28;45442;-76
2023/06/13 07:46:58;;;;;;;;;5.33;5.00;;;;;27.49;55.16;99686.16;5058527;28;45560;-76
2023/06/13 07:49:23;;;;;;;;;9.67;8.67;;;;;27.61;54.59;99648.91;5057467;28;45985;-74
2023/06/13 07:51:50;;;;;;;;;5.67;5.00;;;;;28.34;52.16;99692.25;5044989;28;45398;-75
2023/06/13 07:54:15;;;;;;;;;7.67;6.33;;;;;28.79;51.00;99695.06;5057692;28;45347;-75
2023/06/13 07:56:41;;;;;;;;;6.33;6.00;;;;;28.92;50.67;99688.00;5050986;28;45801;-77
2023/06/13 07:59:06;;;;;;;;;5.00;5.00;;;;;29.00;50.47;99685.72;5051816;28;45391;-74
2023/06/13 08:01:32;;;;;;;;;5.00;5.00;;;;;29.14;48.66;99687.63;5044209;28;45382;-78
2023/06/13 08:03:57;;;;;;;;;5.00;5.00;;;;;29.13;48.76;99692.13;5048797;28;45493;-76
2023/06/13 08:06:23;;;;;;;;;6.00;5.67;;;;;29.85;46.97;99686.81;5057463;28;45797;-76
2023/06/13 08:08:49;;;;;;;;;5.00;5.00;;;;;31.27;45.48;99696.31;5057170;28;45548;-78
2023/06/13 08:11:14;;;;;;;;;5.67;5.67;;;;;32.04;40.89;99689.06;5057536;28;45532;-78
2023/06/13 08:13:41;;;;;;;;;4.33;4.00;;;;;32.82;41.34;99693.19;5052287;28;45475;-80
2023/06/13 08:16:07;;;;;;;;;5.33;3.67;;;;;32.72;42.17;99683.19;5038983;28;45427;-75
2023/06/13 08:18:32;;;;;;;;;4.33;4.00;;;;;33.47;39.04;99699.91;5051183;28;45924;-76
2023/06/13 08:20:58;;;;;;;;;2.67;2.67;;;;;33.91;39.02;99689.22;5057092;28;45292;-75
2023/06/13 08:23:23;;;;;;;;;4.00;4.00;;;;;33.83;38.42;99695.25;5040105;28;45539;-77
2023/06/13 08:25:49;;;;;;;;;4.67;4.00;;;;;33.32;39.73;99698.38;5057106;28;45412;-76
2023/06/13 08:28:14;;;;;;;;;4.33;4.33;;;;;33.49;40.03;99703.34;5057235;28;46184;-78
2023/06/13 08:30:42;;;;;;;;;4.33;3.67;;;;;33.82;38.28;99688.13;5057827;28;45539;-75
2023/06/13 08:33:10;;;;;;;;;4.00;3.67;;;;;34.56;38.25;99689.34;5041501;28;45370;-76
2023/06/13 08:35:36;;;;;;;;;3.00;3.00;;;;;35.18;34.71;99688.59;5052861;28;45666;-74
2023/06/13 08:38:01;;;;;;;;;5.00;5.00;;;;;35.28;36.03;99687.78;5038084;28;45668;-74
2023/06/13 08:40:27;;;;;;;;;3.33;3.33;;;;;36.35;35.38;99678.25;5050325;28;45433;-73
2023/06/13 08:42:53;;;;;;;;;7.00;6.33;;;;;37.85;32.12;99695.00;5041159;28;45461;-73
2023/06/13 08:45:20;;;;;;;;;8.67;8.33;;;;;37.13;33.00;99681.03;5053439;28;45327;-73
2023/06/13 08:47:47;;;;;;;;;7.33;6.33;;;;;35.90;35.13;99684.13;5045444;28;46202;-74
2023/06/13 08:50:18;;;;;;;;;4.67;4.67;;;;;35.09;36.46;99683.94;5044905;28;45419;-73
2023/06/13 08:52:46;;;;;;;;;5.00;5.00;;;;;35.22;36.27;99676.50;5033331;28;45368;-73
2023/06/13 08:55:14;;;;;;;;;8.67;8.33;;;;;35.39;36.46;99672.28;5042105;28;45516;-76
2023/06/13 08:57:41;;;;;;;;;6.33;6.33;;;;;36.05;34.21;99681.88;5036831;28;45510;-75
2023/06/13 09:00:11;;;;;;;;;6.33;5.33;;;;;36.53;34.73;99675.69;5040592;28;45402;-75
2023/06/13 09:02:42;;;;;;;;;8.00;8.00;;;;;35.92;34.34;99667.69;5041638;28;45445;-75
2023/06/13 09:05:13;;;;;;;;;5.00;5.00;;;;;35.26;36.03;99674.38;5043354;28;45832;-76
2023/06/13 09:07:40;;;;;;;;;3.33;3.33;;;;;34.51;35.74;99668.03;5038666;28;45978;-77
2023/06/13 09:10:10;;;;;;;;;4.00;4.00;;;;;33.11;37.57;99654.94;5054082;28;45533;-76
2023/06/13 09:12:36;;;;;;;;;5.33;5.33;;;;;33.01;38.30;99656.63;5055783;28;45373;-76
2023/06/13 09:15:03;;;;;;;;;7.00;6.00;;;;;33.30;37.91;99665.16;5053237;28;45717;-76
2023/06/13 09:17:29;;;;;;;;;4.00;4.00;;;;;33.26;38.47;99658.28;5056307;28;45518;-77
2023/06/13 09:19:54;;;;;;;;;4.67;4.67;;;;;33.79;36.87;99655.84;5045171;28;45543;-76
2023/06/13 09:22:21;;;;;;;;;4.33;4.00;;;;;34.78;35.06;99642.28;5053459;28;45453;-76
2023/06/13 09:24:47;;;;;;;;;5.67;5.33;;;;;35.57;33.84;99641.78;5049105;28;45354;-75
2023/06/13 09:27:14;;;;;;;;;3.00;2.67;;;;;35.30;35.31;99648.66;5047467;28;46024;-78
2023/06/13 09:29:39;;;;;;;;;5.00;5.00;;;;;35.60;34.07;99647.81;5056002;28;45426;-78
2023/06/13 09:32:05;;;;;;;;;4.67;4.00;;;;;36.17;32.40;99633.69;5034190;28;45542;-78
2023/06/13 09:34:31;;;;;;;;;3.00;3.00;;;;;36.68;31.10;99656.25;5043425;28;45363;-78
2023/06/13 09:36:58;;;;;;;;;17.50;17.50;;;;;36.82;32.13;99632.16;5055389;28;45593;-78
2023/06/13 09:39:28;;;;;;;;;5.00;4.33;;;;;37.29;31.26;99645.00;5055956;28;45689;-78
2023/06/13 09:41:56;;;;;;;;;4.67;3.00;;;;;37.47;30.86;99636.06;5036469;28;45352;-79
2023/06/13 09:44:25;;;;;;;;;4.00;4.00;;;;;37.97;30.71;99646.59;5043201;28;45426;-77
2023/06/13 09:46:53;;;;;;;;;9.33;8.67;;;;;38.12;30.60;99641.47;5047860;28;45440;-75
2023/06/13 09:49:19;;;;;;;;;3.33;3.33;;;;;38.28;30.92;99651.72;5018057;28;45404;-77
2023/06/13 09:51:46;;;;;;;;;4.00;4.00;;;;;38.09;29.83;99647.25;5041714;28;45454;-74
2023/06/13 09:54:12;;;;;;;;;4.33;4.00;;;;;37.79;31.50;99641.94;5049167;28;45532;-74
2023/06/13 09:56:42;;;;;;;;;3.00;3.00;;;;;37.70;30.95;99639.25;5026803;28;45614;-76
2023/06/13 09:59:18;;;;;;;;;7.67;6.67;;;;;36.47;32.35;99630.03;5044314;28;45378;-75
2023/06/13 10:01:47;;;;;;;;;5.00;5.00;;;;;36.59;32.32;99642.47;5054398;28;45382;-75
2023/06/13 10:04:13;;;;;;;;;5.33;5.33;;;;;36.95;32.32;99641.91;5055867;28;45496;-73
2023/06/13 10:06:39;;;;;;;;;5.00;5.00;;;;;37.19;31.34;99650.47;5047651;28;46381;-73
2023/06/13 10:09:05;;;;;;;;;4.67;4.67;;;;;36.32;32.35;99645.03;5046499;28;45543;-73
2023/06/13 10:11:35;;;;;;;;;3.67;3.67;;;;;35.71;33.67;99640.56;5045551;28;45451;-74
2023/06/13 10:14:22;;;;;;;;;5.33;5.33;;;;;34.88;34.47;99629.69;5046301;28;45407;-76
2023/06/13 10:16:58;;;;;;;;;6.00;5.33;;;;;34.31;35.28;99649.88;5050073;28;45378;-76
2023/06/13 10:19:24;;;;;;;;;8.00;8.00;;;;;33.74;35.69;99649.94;5053679;28;45481;-75
2023/06/13 10:21:51;;;;;;;;;6.00;5.33;;;;;33.05;37.27;99648.13;5055902;28;45500;-76
2023/06/13 10:24:17;;;;;;;;;5.67;4.67;;;;;32.72;37.52;99666.97;5056895;28;45326;-76
2023/06/13 10:26:45;;;;;;;;;5.00;5.00;;;;;32.65;38.08;99653.91;5037677;28;46838;-76
2023/06/13 10:29:49;;;;;;;;;8.33;7.00;;;;;32.34;38.93;99660.75;5056497;28;45324;-76
2023/06/13 10:32:20;;;;;;;;;6.00;6.00;;;;;32.04;38.95;99662.03;5038729;28;45252;-75
2023/06/13 10:34:48;;;;;;;;;5.00;5.00;;;;;31.75;38.90;99661.44;5056939;28;45526;-75
2023/06/13 10:37:32;;;;;;;;;6.67;5.33;;;;;31.49;39.39;99663.31;5056627;28;45474;-76
2023/06/13 10:40:42;;;;;;;;;7.00;5.67;;;;;31.47;39.14;99659.84;5038808;28;45695;-75
2023/06/13 10:43:31;;;;;;;;;4.67;4.67;;;;;31.59;39.79;99664.38;5056437;28;45497;-75
2023/06/13 10:46:02;;;;;;;;;6.00;4.67;;;;;31.37;40.41;99648.81;5057034;28;45528;-75
2023/06/13 10:48:35;;;;;;;;;7.00;6.00;;;;;31.69;39.41;99651.06;5057088;28;46174;-75
2023/06/13 10:51:01;;;;;;;;;6.00;5.33;;;;;31.59;39.66;99653.56;5039045;28;45507;-75
2023/06/13 10:53:27;;;;;;;;;6.00;6.00;;;;;31.33;40.41;99648.16;5056985;28;45522;-75
2023/06/13 10:56:00;;;;;;;;;5.33;5.00;;;;;31.56;40.54;99659.22;5057078;28;45367;-75
2023/06/13 10:58:27;;;;;;;;;7.67;7.67;;;;;31.61;40.17;99646.22;5056630;28;45604;-75
2023/06/13 11:00:52;;;;;;;;;6.67;6.67;;;;;31.51;40.73;99656.84;5055278;28;45587;-75
2023/06/13 11:03:18;;;;;;;;;8.00;8.00;;;;;31.28;40.62;99638.69;5056833;28;45222;-75
2023/06/13 11:05:50;;;;;;;;;7.00;6.67;;;;;30.97;41.30;99661.53;5057114;28;45471;-75
2023/06/13 11:08:19;;;;;;;;;8.00;7.00;;;;;30.84;41.86;99642.59;5055007;28;45466;-75
2023/06/13 11:10:46;;;;;;;;;8.00;8.00;;;;;31.17;41.43;99655.63;5056637;28;45923;-75
2023/06/13 11:13:24;;;;;;;;;8.67;7.33;;;;;31.38;41.63;99645.16;5055075;28;45497;-76
2023/06/13 11:15:53;;;;;;;;;7.67;7.67;;;;;31.23;41.33;99657.88;5055274;28;45517;-75
2023/06/13 11:18:19;;;;;;;;;7.67;6.67;;;;;31.63;41.19;99657.78;5037985;28;47924;-75
2023/06/13 11:20:53;;;;;;;;;7.00;7.00;;;;;31.97;40.21;99647.22;5056238;28;45464;-75
2023/06/13 11:23:24;;;;;;;;;6.33;6.00;;;;;32.10;40.40;99647.22;5056672;28;45603;-76
2023/06/13 11:25:51;;;;;;;;;10.00;7.00;;;;;32.12;40.44;99641.72;5056430;28;45561;-75
2023/06/13 11:28:18;;;;;;;;;5.00;5.00;;;;;32.02;39.79;99650.50;5056309;28;45427;-75
2023/06/13 11:30:49;;;;;;;;;6.67;5.67;;;;;32.12;39.91;99645.28;5056339;28;45238;-75
2023/06/13 11:33:16;;;;;;;;;8.00;8.00;;;;;32.25;38.82;99648.78;5038081;28;45428;-76
2023/06/13 11:35:49;;;;;;;;;7.00;6.00;;;;;32.34;39.16;99654.50;5056770;28;45243;-75